createdAt,value
2023-01-22T00:00:20.773Z,4.27
2023-01-22T00:05:43.494Z,3.90
2023-01-22T00:10:53.812Z,4.63
2023-01-22T00:15:58.284Z,3.70
2023-01-22T00:21:02.296Z,4.37
2023-01-22T00:26:14.458Z,3.70
2023-01-22T00:31:18.499Z,3.93
2023-01-22T00:36:22.456Z,3.83
2023-01-22T00:41:26.055Z,4.00
2023-01-22T00:46:29.344Z,3.43
2023-01-22T00:51:36.410Z,3.80
2023-01-22T00:56:39.307Z,4.20
2023-01-22T01:01:42.555Z,3.93
2023-01-22T01:06:45.517Z,4.10
2023-01-22T01:11:49.165Z,4.13
2023-01-22T01:16:54.679Z,4.27
2023-01-22T01:21:57.821Z,3.80
2023-01-22T01:27:00.960Z,4.30
2023-01-22T01:32:08.129Z,3.77
2023-01-22T01:37:11.097Z,4.20
2023-01-22T01:42:14.372Z,4.37
2023-01-22T01:47:32.237Z,4.70
2023-01-22T01:52:35.182Z,4.57
2023-01-22T01:57:38.993Z,4.03
2023-01-22T02:02:42.368Z,4.30
2023-01-22T02:07:45.628Z,4.60
2023-01-22T02:12:49.592Z,4.70
2023-01-22T02:17:53.056Z,4.70
2023-01-22T02:22:57.250Z,4.40
2023-01-22T02:28:00.793Z,4.50
2023-01-22T02:33:04.617Z,4.27
2023-01-22T02:38:07.944Z,4.30
2023-01-22T02:43:11.563Z,5.00
2023-01-22T02:48:14.683Z,4.50
2023-01-22T02:53:17.614Z,4.47
2023-01-22T02:58:20.666Z,4.10
2023-01-22T03:03:23.884Z,5.10
2023-01-22T03:08:27.003Z,4.87
2023-01-22T03:13:49.255Z,5.20
2023-01-22T03:19:11.372Z,5.20
2023-01-22T03:24:14.454Z,4.83
2023-01-22T03:29:17.829Z,4.47
2023-01-22T03:34:24.646Z,4.77
2023-01-22T03:39:31.500Z,4.90
2023-01-22T03:44:34.851Z,5.10
2023-01-22T03:49:38.735Z,5.00
2023-01-22T03:54:42.391Z,4.93
2023-01-22T03:59:47.550Z,5.00
2023-01-22T04:04:51.683Z,4.87
2023-01-22T04:09:55.039Z,5.83
2023-01-22T04:14:58.578Z,5.37
2023-01-22T04:20:02.872Z,5.43
2023-01-22T04:25:31.141Z,5.47
2023-01-22T04:30:34.415Z,5.20
2023-01-22T04:35:56.195Z,5.67
2023-01-22T04:41:00.232Z,5.40
2023-01-22T04:46:03.489Z,6.30
2023-01-22T04:51:08.793Z,5.53
2023-01-22T04:56:11.996Z,5.83
2023-01-22T05:01:15.712Z,5.37
2023-01-22T05:06:18.863Z,6.53
2023-01-22T05:11:22.729Z,6.87
2023-01-22T05:16:33.792Z,7.13
2023-01-22T05:21:36.826Z,9.43
2023-01-22T05:26:41.682Z,10.63
2023-01-22T05:31:54.470Z,8.07
2023-01-22T05:37:07.702Z,7.63
2023-01-22T05:42:15.074Z,7.43
2023-01-22T05:47:20.227Z,7.30
2023-01-22T05:52:42.380Z,6.27
2023-01-22T05:57:46.945Z,8.00
2023-01-22T06:02:58.551Z,6.30
2023-01-22T06:08:02.594Z,6.63
2023-01-22T06:13:12.834Z,6.70
2023-01-22T06:18:16.446Z,6.47
2023-01-22T06:23:19.814Z,6.10
2023-01-22T06:28:24.754Z,7.30
2023-01-22T06:33:27.708Z,7.60
2023-01-22T06:38:31.574Z,7.50
2023-01-22T06:43:40.215Z,7.73
2023-01-22T06:48:44.029Z,7.27
2023-01-22T06:53:47.013Z,7.07
2023-01-22T06:58:50.352Z,7.33
2023-01-22T07:03:53.716Z,7.00
2023-01-22T07:08:57.249Z,6.87
2023-01-22T07:14:00.116Z,8.10
2023-01-22T07:19:03.209Z,8.53
2023-01-22T07:24:06.439Z,8.03
2023-01-22T07:29:10.502Z,8.77
2023-01-22T07:34:13.392Z,9.00
2023-01-22T07:39:16.477Z,7.53
2023-01-22T07:44:19.485Z,8.77
2023-01-22T07:49:22.466Z,8.40
2023-01-22T07:54:25.545Z,6.97
2023-01-22T07:59:28.801Z,6.70
2023-01-22T08:04:31.856Z,6.83
2023-01-22T08:09:36.684Z,6.23
2023-01-22T08:14:39.626Z,6.33
2023-01-22T08:19:42.461Z,6.20
2023-01-22T08:24:45.557Z,6.60
2023-01-22T08:29:50.132Z,6.13
2023-01-22T08:34:54.603Z,6.23
2023-01-22T08:39:57.457Z,6.20
2023-01-22T08:45:00.548Z,6.17
2023-01-22T08:50:04.268Z,6.83
2023-01-22T08:55:10.214Z,8.87
2023-01-22T09:00:13.599Z,6.20
2023-01-22T09:05:16.717Z,6.20
2023-01-22T09:10:21.672Z,6.67
2023-01-22T09:15:24.984Z,6.57
2023-01-22T09:20:28.103Z,5.67
2023-01-22T09:25:31.175Z,6.10
2023-01-22T09:30:34.082Z,5.80
2023-01-22T09:35:36.970Z,6.17
2023-01-22T09:40:49.953Z,5.87
2023-01-22T09:45:56.348Z,6.03
2023-01-22T09:51:00.603Z,6.17
2023-01-22T09:56:08.635Z,5.70
2023-01-22T10:01:11.730Z,7.27
2023-01-22T10:06:18.715Z,6.67
2023-01-22T10:11:21.802Z,6.60
2023-01-22T10:16:25.233Z,6.33
2023-01-22T10:21:34.539Z,6.20
2023-01-22T10:26:40.320Z,6.40
2023-01-22T10:31:48.650Z,9.13
2023-01-22T10:36:53.947Z,8.53
2023-01-22T10:42:01.869Z,8.30
2023-01-22T10:47:22.529Z,6.70
2023-01-22T10:52:35.419Z,13.30
2023-01-22T10:57:38.584Z,28.83
2023-01-22T11:02:50.307Z,82.60
2023-01-22T11:08:15.816Z,16.40
2023-01-22T11:13:30.589Z,6.37
2023-01-22T11:18:37.597Z,7.53
2023-01-22T11:24:03.660Z,8.27
2023-01-22T11:29:23.955Z,8.03
2023-01-22T11:34:46.633Z,7.30
2023-01-22T11:40:03.991Z,7.47
2023-01-22T11:45:07.558Z,7.67
2023-01-22T11:50:30.838Z,6.80
2023-01-22T11:55:46.255Z,22.00
2023-01-22T12:00:52.944Z,97.07
2023-01-22T12:06:21.935Z,75.37
2023-01-22T12:11:40.344Z,55.47
2023-01-22T12:16:54.988Z,11.07
2023-01-22T12:22:06.280Z,7.37
2023-01-22T12:27:17.503Z,6.60
2023-01-22T12:32:23.396Z,7.00
2023-01-22T12:37:40.321Z,6.63
2023-01-22T12:42:53.767Z,7.07
2023-01-22T12:48:06.060Z,6.90
2023-01-22T12:53:24.030Z,6.80
2023-01-22T12:58:30.441Z,5.87
2023-01-22T13:03:34.489Z,6.47
2023-01-22T13:08:41.200Z,7.30
2023-01-22T13:13:55.188Z,7.20
2023-01-22T13:19:01.109Z,6.27
2023-01-22T13:24:09.869Z,6.77
2023-01-22T13:29:32.460Z,7.00
2023-01-22T13:34:35.559Z,6.43
2023-01-22T13:39:38.842Z,6.97
2023-01-22T13:44:48.105Z,6.70
2023-01-22T13:49:51.649Z,6.50
2023-01-22T13:55:08.256Z,7.40
2023-01-22T14:00:24.298Z,6.07
2023-01-22T14:05:30.925Z,6.63
2023-01-22T14:10:34.689Z,8.00
2023-01-22T14:15:39.677Z,6.33
2023-01-22T14:20:45.282Z,6.50
2023-01-22T14:25:52.572Z,6.23
2023-01-22T14:30:55.826Z,5.73
2023-01-22T14:35:59.609Z,6.00
2023-01-22T14:41:07.018Z,6.37
2023-01-22T14:46:10.074Z,7.33
2023-01-22T14:51:13.179Z,8.10
2023-01-22T14:56:16.366Z,10.80
2023-01-22T15:01:21.476Z,10.90
2023-01-22T15:06:25.529Z,12.63
2023-01-22T15:11:28.621Z,12.20
2023-01-22T15:16:31.741Z,13.53
2023-01-22T15:21:35.421Z,16.40
2023-01-22T15:26:38.747Z,16.90
2023-01-22T15:31:42.099Z,15.27
2023-01-22T15:36:45.357Z,9.97
2023-01-22T15:41:48.289Z,7.63
2023-01-22T15:46:51.463Z,7.40
2023-01-22T15:51:54.778Z,8.03
2023-01-22T15:56:58.250Z,6.90
2023-01-22T16:02:02.031Z,6.50
2023-01-22T16:07:05.422Z,6.53
2023-01-22T16:12:09.410Z,6.87
2023-01-22T16:17:12.746Z,7.10
2023-01-22T16:22:15.941Z,7.53
2023-01-22T16:27:19.148Z,7.17
2023-01-22T16:32:22.180Z,6.23
2023-01-22T16:37:25.089Z,6.33
2023-01-22T16:42:28.387Z,6.63
2023-01-22T16:47:31.513Z,6.27
2023-01-22T16:52:35.260Z,8.27
2023-01-22T16:57:38.342Z,11.37
2023-01-22T17:02:41.357Z,14.47
2023-01-22T17:07:44.376Z,13.13
2023-01-22T17:12:47.620Z,11.17
2023-01-22T17:17:51.035Z,11.30
2023-01-22T17:22:55.388Z,9.10
2023-01-22T17:27:58.652Z,9.93
2023-01-22T17:33:01.790Z,7.87
2023-01-22T17:38:05.338Z,7.67
2023-01-22T17:43:08.460Z,7.73
2023-01-22T17:48:11.894Z,7.43
2023-01-22T17:53:15.187Z,6.97
2023-01-22T17:58:19.049Z,7.53
2023-01-22T18:03:22.258Z,8.73
2023-01-22T18:08:25.517Z,8.17
2023-01-22T18:13:28.708Z,9.03
2023-01-22T18:18:31.909Z,7.57
2023-01-22T18:23:34.904Z,10.83
2023-01-22T18:28:37.846Z,10.03
2023-01-22T18:33:42.716Z,7.30
2023-01-22T18:38:46.566Z,4.17
2023-01-22T18:43:55.598Z,5.03
2023-01-22T18:49:00.973Z,4.30
2023-01-22T18:54:05.555Z,5.60
2023-01-22T18:59:08.914Z,4.50
2023-01-22T19:04:18.235Z,3.83
2023-01-22T19:09:21.483Z,3.63
2023-01-22T19:14:24.786Z,4.50
2023-01-22T19:19:27.970Z,5.60
2023-01-22T19:24:32.553Z,5.43
2023-01-22T19:29:35.784Z,5.07
2023-01-22T19:34:38.731Z,4.87
2023-01-22T19:39:41.848Z,5.37
2023-01-22T19:44:46.193Z,5.87
2023-01-22T19:49:49.298Z,5.30
2023-01-22T19:54:52.550Z,5.90
2023-01-22T19:59:58.595Z,7.30
2023-01-22T20:05:02.061Z,8.20
2023-01-22T20:10:05.815Z,8.43
2023-01-22T20:15:09.594Z,6.77
2023-01-22T20:20:12.699Z,7.20
2023-01-22T20:25:15.892Z,6.20
2023-01-22T20:30:18.820Z,5.13
2023-01-22T20:35:24.687Z,6.70
2023-01-22T20:40:27.924Z,7.23
2023-01-22T20:45:31.637Z,5.80
2023-01-22T20:50:34.786Z,5.20
2023-01-22T20:55:38.131Z,6.33
2023-01-22T21:00:41.304Z,6.30
2023-01-22T21:05:44.404Z,5.83
2023-01-22T21:11:01.824Z,4.97
2023-01-22T21:16:13.211Z,6.40
2023-01-22T21:21:19.328Z,5.77
2023-01-22T21:26:25.630Z,5.90
2023-01-22T21:31:29.591Z,5.40
2023-01-22T21:36:36.157Z,5.40
2023-01-22T21:41:39.325Z,7.17
2023-01-22T21:46:43.979Z,6.97
2023-01-22T21:51:51.093Z,6.90
2023-01-22T21:56:54.731Z,5.80
2023-01-22T22:01:58.225Z,6.13
2023-01-22T22:07:01.687Z,5.50
2023-01-22T22:12:04.916Z,6.47
2023-01-22T22:17:08.251Z,5.77
2023-01-22T22:22:11.326Z,5.70
2023-01-22T22:27:14.529Z,5.83
2023-01-22T22:32:17.642Z,5.00
2023-01-22T22:37:20.864Z,4.90
2023-01-22T22:42:24.274Z,4.67
2023-01-22T22:47:27.454Z,5.00
2023-01-22T22:52:31.600Z,4.63
2023-01-22T22:57:34.719Z,5.13
2023-01-22T23:02:38.127Z,4.83
2023-01-22T23:07:41.474Z,5.20
2023-01-22T23:12:44.714Z,5.47
2023-01-22T23:17:47.871Z,5.50
2023-01-22T23:22:56.672Z,5.93
2023-01-22T23:28:00.139Z,6.97
2023-01-22T23:33:03.478Z,8.23
2023-01-22T23:38:06.486Z,6.90
2023-01-22T23:43:09.279Z,6.67
2023-01-22T23:48:12.379Z,5.03
2023-01-22T23:53:15.885Z,5.97
2023-01-22T23:58:18.891Z,5.80
